Time;durP1;ratioP1;P1;durP2;ratioP2;P2;SDS_P1;SDS_P2;PMS_P1;PMS_P2;Temp;Humidity;BMP_temperature;BMP_pressure;BME280_temperature;BME280_humidity;BME280_pressure;Samples;Min_cycle;Max_cycle;Signal;HPM_P1;HPM_P2
2023/06/29 00:00:21;;;;;;;3.20;2.85;;;20.20;99.90;;;;;;4956532;28;20106;-77
2023/06/29 00:02:49;;;;;;;3.85;3.05;;;20.20;99.90;;;;;;4988696;28;20049;-78
2023/06/29 00:05:16;;;;;;;3.58;2.92;;;20.20;99.90;;;;;;4972272;28;20132;-79
2023/06/29 00:07:43;;;;;;;3.85;3.45;;;20.20;99.90;;;;;;4988789;28;20559;-78
2023/06/29 00:10:10;;;;;;;4.50;2.83;;;20.20;99.90;;;;;;4988471;28;20045;-78
2023/06/29 00:12:36;;;;;;;3.38;2.72;;;20.20;99.90;;;;;;4984927;28;20077;-78
2023/06/29 00:15:04;;;;;;;3.60;2.83;;;20.10;99.90;;;;;;4972179;28;20112;-77
2023/06/29 00:17:30;;;;;;;3.20;2.70;;;20.20;99.90;;;;;;4986378;28;20053;-78
2023/06/29 00:19:58;;;;;;;3.00;2.53;;;20.20;99.90;;;;;;5004385;28;20057;-77
2023/06/29 00:22:25;;;;;;;3.78;3.17;;;20.20;99.90;;;;;;4972686;28;20045;-77
2023/06/29 00:24:59;;;;;;;3.00;2.70;;;20.20;99.90;;;;;;5001543;28;20525;-77
2023/06/29 00:27:26;;;;;;;3.78;3.05;;;20.30;99.90;;;;;;4985525;28;20153;-78
2023/06/29 00:29:52;;;;;;;3.42;2.75;;;20.30;99.90;;;;;;4987652;28;20042;-77
2023/06/29 00:32:19;;;;;;;3.45;2.83;;;20.30;99.90;;;;;;5005957;28;20077;-78
2023/06/29 00:34:46;;;;;;;3.47;3.00;;;20.30;99.90;;;;;;4971217;28;20099;-77
2023/06/29 00:37:13;;;;;;;3.05;2.70;;;20.20;99.90;;;;;;4988053;28;20553;-78
2023/06/29 00:39:40;;;;;;;4.00;3.13;;;20.20;99.90;;;;;;5005595;28;20050;-77
2023/06/29 00:42:07;;;;;;;3.40;2.78;;;20.20;99.90;;;;;;4987662;28;20081;-78
2023/06/29 00:44:34;;;;;;;3.60;2.95;;;20.20;99.90;;;;;;4987468;28;20058;-77
2023/06/29 00:47:00;;;;;;;4.30;3.40;;;20.10;99.90;;;;;;4970933;28;20446;-77
2023/06/29 00:49:27;;;;;;;3.20;2.70;;;20.10;99.90;;;;;;4971290;28;20132;-78
2023/06/29 00:51:54;;;;;;;3.22;2.75;;;20.10;99.90;;;;;;4968881;28;20559;-79
2023/06/29 00:54:21;;;;;;;3.85;2.95;;;20.10;99.90;;;;;;4955075;28;20416;-78
2023/06/29 00:56:48;;;;;;;4.03;3.08;;;20.10;99.90;;;;;;4970362;28;20501;-79
2023/06/29 00:59:15;;;;;;;3.20;2.47;;;20.10;99.90;;;;;;4972070;28;20045;-77
2023/06/29 01:01:42;;;;;;;3.38;2.90;;;20.00;99.90;;;;;;5000898;28;20050;-77
2023/06/29 01:04:09;;;;;;;3.75;3.20;;;20.10;99.90;;;;;;4967852;28;20077;-78
2023/06/29 01:07:04;;;;;;;3.70;3.03;;;20.10;99.90;;;;;;4984551;28;20591;-78
2023/06/29 01:09:31;;;;;;;4.15;3.15;;;20.00;99.90;;;;;;4987884;28;20097;-78
2023/06/29 01:11:58;;;;;;;3.72;2.90;;;20.00;99.90;;;;;;4970941;28;20132;-79
2023/06/29 01:14:25;;;;;;;4.47;2.90;;;20.00;99.90;;;;;;4971335;28;20080;-79
2023/06/29 01:16:52;;;;;;;4.18;2.78;;;19.90;99.90;;;;;;4955519;28;20038;-79
2023/06/29 01:19:21;;;;;;;3.80;3.33;;;19.90;99.90;;;;;;4971284;28;20049;-79
2023/06/29 01:21:59;;;;;;;3.45;3.15;;;19.80;99.90;;;;;;4955262;28;20053;-78
2023/06/29 01:24:26;;;;;;;4.35;3.53;;;19.80;99.90;;;;;;4964616;28;20046;-79
2023/06/29 01:26:53;;;;;;;3.47;3.17;;;19.70;99.90;;;;;;4951762;28;20069;-79
2023/06/29 01:29:25;;;;;;;4.40;3.65;;;19.60;99.90;;;;;;4985111;28;20054;-79
2023/06/29 01:31:53;;;;;;;3.85;3.03;;;19.60;99.90;;;;;;4990621;28;20528;-79
2023/06/29 01:34:21;;;;;;;3.63;3.03;;;19.60;99.90;;;;;;4970711;28;20053;-79
2023/06/29 01:36:48;;;;;;;4.10;3.15;;;19.50;99.90;;;;;;4970997;28;20057;-80
2023/06/29 01:39:22;;;;;;;4.00;3.15;;;19.60;99.90;;;;;;4972974;28;20053;-79
2023/06/29 01:41:49;;;;;;;3.22;2.80;;;19.60;99.90;;;;;;4989158;28;20049;-79
2023/06/29 01:44:16;;;;;;;3.63;3.10;;;19.60;99.90;;;;;;4973448;28;20474;-77
2023/06/29 01:46:43;;;;;;;3.15;2.78;;;19.60;99.90;;;;;;4972274;28;20092;-77
2023/06/29 01:49:10;;;;;;;3.58;3.08;;;19.60;99.90;;;;;;4972344;28;20049;-78
2023/06/29 01:51:36;;;;;;;3.67;3.05;;;19.60;99.90;;;;;;4972060;28;20073;-77
2023/06/29 01:54:03;;;;;;;4.07;2.83;;;19.60;99.90;;;;;;4956152;28;20045;-78
2023/06/29 01:56:30;;;;;;;3.20;2.63;;;19.60;99.90;;;;;;4971773;28;20080;-77
2023/06/29 01:59:01;;;;;;;3.83;3.22;;;19.60;99.90;;;;;;4972647;28;20141;-79
2023/06/29 02:01:29;;;;;;;3.70;3.10;;;19.60;99.90;;;;;;4989061;28;20450;-78
2023/06/29 02:03:56;;;;;;;3.80;3.30;;;19.60;99.90;;;;;;4987739;28;20812;-78
2023/06/29 02:06:23;;;;;;;4.18;3.50;;;19.60;99.90;;;;;;4988125;28;20053;-78
2023/06/29 02:08:50;;;;;;;4.85;4.35;;;19.60;99.90;;;;;;4987747;28;20058;-78
2023/06/29 02:11:17;;;;;;;4.60;4.00;;;19.60;99.90;;;;;;4987779;28;20520;-81
2023/06/29 02:13:43;;;;;;;5.03;4.15;;;19.60;99.90;;;;;;5005502;28;20478;-79
2023/06/29 02:16:10;;;;;;;4.65;4.18;;;19.60;99.90;;;;;;4972531;28;20563;-79
2023/06/29 02:18:37;;;;;;;6.38;5.10;;;19.50;99.90;;;;;;5005939;28;20042;-78
2023/06/29 02:21:04;;;;;;;5.60;4.78;;;19.50;99.90;;;;;;4987907;28;20045;-79
2023/06/29 02:23:31;;;;;;;5.18;4.68;;;19.50;99.90;;;;;;4988678;28;20202;-78
2023/06/29 02:25:58;;;;;;;5.07;4.43;;;19.40;99.90;;;;;;4987653;28;20050;-79
2023/06/29 02:28:24;;;;;;;6.55;5.55;;;19.40;99.90;;;;;;4988252;28;20469;-79
2023/06/29 02:30:51;;;;;;;5.78;5.18;;;19.40;99.90;;;;;;4986115;28;20054;-79
2023/06/29 02:33:18;;;;;;;6.05;5.32;;;19.30;99.90;;;;;;5005600;28;20577;-78
2023/06/29 02:35:44;;;;;;;6.90;5.00;;;19.30;99.90;;;;;;5001532;28;20050;-79
2023/06/29 02:38:12;;;;;;;5.72;5.15;;;19.30;99.90;;;;;;5005519;28;20053;-78
2023/06/29 02:40:38;;;;;;;5.70;4.82;;;19.30;99.90;;;;;;4987021;28;20096;-78
2023/06/29 02:43:05;;;;;;;4.80;4.07;;;19.30;99.90;;;;;;4971578;28;20099;-79
2023/06/29 02:45:32;;;;;;;5.78;5.18;;;19.30;99.90;;;;;;4987486;28;20049;-78
2023/06/29 02:47:58;;;;;;;5.38;4.88;;;19.30;99.90;;;;;;4987435;28;20737;-79
2023/06/29 02:50:25;;;;;;;5.68;5.13;;;19.30;99.90;;;;;;5004075;28;20133;-79
2023/06/29 02:52:52;;;;;;;4.88;4.35;;;19.30;99.90;;;;;;4987497;28;20092;-78
2023/06/29 02:55:21;;;;;;;6.00;5.10;;;19.20;99.90;;;;;;5003941;28;20497;-78
2023/06/29 02:57:48;;;;;;;5.28;4.78;;;19.20;99.90;;;;;;4986725;28;20045;-78
2023/06/29 03:00:16;;;;;;;5.82;5.22;;;19.20;99.90;;;;;;4987780;28;20063;-78
2023/06/29 03:02:43;;;;;;;6.03;5.43;;;19.20;99.90;;;;;;4987261;28;20049;-78
2023/06/29 03:05:10;;;;;;;5.55;4.93;;;19.20;99.90;;;;;;5005046;28;20145;-78
2023/06/29 03:07:37;;;;;;;5.97;4.72;;;19.10;99.90;;;;;;4971428;28;20077;-78
2023/06/29 03:10:04;;;;;;;6.35;5.30;;;19.10;99.90;;;;;;4986295;28;20108;-79
2023/06/29 03:12:31;;;;;;;4.68;4.18;;;19.10;99.90;;;;;;4955702;28;20117;-79
2023/06/29 03:14:58;;;;;;;5.18;4.60;;;19.10;99.90;;;;;;4955224;28;20232;-78
2023/06/29 03:17:24;;;;;;;5.05;4.20;;;19.10;99.90;;;;;;4971728;28;20367;-78
2023/06/29 03:19:51;;;;;;;5.25;4.25;;;19.20;99.90;;;;;;4986658;28;20053;-78
2023/06/29 03:22:18;;;;;;;6.05;5.22;;;19.10;99.90;;;;;;5004961;28;20046;-79
2023/06/29 03:24:45;;;;;;;5.88;5.28;;;19.10;99.90;;;;;;5004507;28;20050;-79
2023/06/29 03:27:11;;;;;;;4.57;4.18;;;19.10;99.90;;;;;;5001553;28;20093;-78
2023/06/29 03:29:38;;;;;;;5.50;4.95;;;19.00;99.90;;;;;;5005016;28;20088;-79
2023/06/29 03:32:06;;;;;;;4.63;4.13;;;19.00;99.90;;;;;;4987840;28;20058;-78
2023/06/29 03:34:32;;;;;;;4.80;4.35;;;19.00;99.90;;;;;;4970480;28;20157;-78
2023/06/29 03:36:59;;;;;;;5.07;4.57;;;19.00;99.90;;;;;;4986519;28;20046;-78
2023/06/29 03:39:26;;;;;;;5.05;4.47;;;19.00;99.90;;;;;;5004748;28;20049;-78
2023/06/29 03:41:52;;;;;;;5.20;4.65;;;19.00;99.90;;;;;;5000893;28;20042;-78
2023/06/29 03:44:19;;;;;;;4.93;4.25;;;19.00;99.90;;;;;;4955522;28;20081;-78
2023/06/29 03:46:47;;;;;;;5.00;4.38;;;18.90;99.90;;;;;;4987110;28;20516;-79
2023/06/29 03:49:14;;;;;;;5.53;4.80;;;18.90;99.90;;;;;;5004888;28;20096;-78
2023/06/29 03:51:40;;;;;;;5.57;4.30;;;18.90;99.90;;;;;;4986867;28;20042;-78
2023/06/29 03:54:07;;;;;;;4.80;4.30;;;18.90;99.90;;;;;;4982254;28;20116;-79
2023/06/29 03:56:34;;;;;;;4.50;4.10;;;18.80;99.90;;;;;;4967597;28;20042;-79
2023/06/29 03:59:01;;;;;;;4.97;4.43;;;18.80;99.90;;;;;;4985996;28;20073;-79
2023/06/29 04:01:28;;;;;;;4.85;4.05;;;18.70;99.90;;;;;;4985832;28;20433;-78
2023/06/29 04:03:54;;;;;;;4.85;4.38;;;18.70;99.90;;;;;;4989074;28;20053;-78
2023/06/29 04:06:21;;;;;;;5.32;4.53;;;18.60;99.90;;;;;;5004563;28;20046;-77
2023/06/29 04:08:48;;;;;;;4.47;4.05;;;18.50;99.90;;;;;;5005101;28;20100;-78
2023/06/29 04:11:15;;;;;;;3.95;3.38;;;18.30;99.90;;;;;;5004659;28;20108;-78
2023/06/29 04:13:42;;;;;;;4.38;2.88;;;18.20;99.90;;;;;;4988421;28;20045;-79
2023/06/29 04:16:09;;;;;;;4.03;3.30;;;18.00;99.90;;;;;;5005409;28;20049;-77
2023/06/29 04:18:36;;;;;;;3.47;2.85;;;17.90;99.90;;;;;;4994582;28;20057;-78
2023/06/29 04:21:03;;;;;;;2.53;1.80;;;17.80;99.90;;;;;;5005657;28;20367;-78
2023/06/29 04:23:29;;;;;;;1.85;1.48;;;17.80;99.90;;;;;;4973065;28;20078;-77
2023/06/29 04:25:56;;;;;;;2.10;1.45;;;17.80;99.90;;;;;;4975086;28;20108;-79
2023/06/29 04:28:23;;;;;;;1.50;0.93;;;17.70;99.90;;;;;;5008818;28;20054;-79
2023/06/29 04:30:50;;;;;;;1.10;0.70;;;17.60;99.90;;;;;;5009267;28;20457;-79
2023/06/29 04:33:16;;;;;;;0.95;0.80;;;17.50;99.90;;;;;;4959531;28;20050;-79
2023/06/29 04:35:43;;;;;;;0.57;0.50;;;17.40;99.90;;;;;;4991945;28;20457;-79
2023/06/29 04:38:12;;;;;;;0.80;0.70;;;17.40;99.90;;;;;;4984464;28;20498;-79
2023/06/29 04:40:39;;;;;;;0.50;0.40;;;17.30;99.90;;;;;;4998082;28;20100;-79
2023/06/29 04:43:06;;;;;;;0.65;0.50;;;17.20;99.90;;;;;;4987710;28;20453;-78
2023/06/29 04:45:33;;;;;;;0.30;0.30;;;17.10;99.90;;;;;;4975324;28;20224;-79
2023/06/29 04:48:00;;;;;;;0.30;0.20;;;17.10;99.90;;;;;;5000162;28;20073;-79
2023/06/29 04:50:35;;;;;;;0.30;0.30;;;17.10;99.90;;;;;;4988280;28;20108;-78
2023/06/29 04:53:09;;;;;;;0.10;0.10;;;17.00;99.90;;;;;;4958541;28;20111;-78
2023/06/29 04:55:39;;;;;;;0.30;0.20;;;17.00;99.90;;;;;;4989544;28;20060;-78
2023/06/29 04:58:06;;;;;;;0.10;0.10;;;17.00;99.90;;;;;;5006127;28;20393;-79
2023/06/29 05:00:33;;;;;;;0.10;0.10;;;16.90;99.90;;;;;;5006868;28;20156;-78
2023/06/29 05:03:00;;;;;;;0.20;0.20;;;16.80;99.90;;;;;;4982070;28;20066;-78
2023/06/29 05:05:27;;;;;;;0.35;0.28;;;16.70;99.90;;;;;;4979888;28;20096;-78
2023/06/29 05:07:54;;;;;;;0.00;0.00;;;16.70;99.90;;;;;;5002823;28;20057;-78
2023/06/29 05:10:21;;;;;;;0.20;0.17;;;16.70;99.90;;;;;;5001098;28;20049;-78
2023/06/29 05:12:48;;;;;;;0.20;0.15;;;16.70;99.90;;;;;;4983030;28;20377;-78
2023/06/29 05:15:15;;;;;;;0.20;0.20;;;16.70;99.90;;;;;;4968704;28;20050;-78
2023/06/29 05:17:43;;;;;;;0.17;0.17;;;16.70;99.90;;;;;;4949785;28;20050;-78
2023/06/29 05:20:10;;;;;;;0.10;0.10;;;16.70;99.90;;;;;;4996947;28;20714;-78
2023/06/29 05:22:37;;;;;;;0.10;0.10;;;16.70;99.90;;;;;;5003299;28;20054;-78
2023/06/29 05:25:04;;;;;;;0.10;0.10;;;16.70;99.90;;;;;;5001678;28;20268;-77
2023/06/29 05:27:31;;;;;;;0.10;0.10;;;16.80;99.90;;;;;;5002049;28;20402;-78
2023/06/29 05:29:58;;;;;;;0.65;0.10;;;16.70;99.90;;;;;;4985664;28;20587;-78
2023/06/29 05:32:25;;;;;;;0.98;0.20;;;16.60;99.90;;;;;;5001637;28;20168;-78
2023/06/29 05:34:51;;;;;;;0.10;0.10;;;16.50;99.90;;;;;;4975166;28;20528;-78
2023/06/29 05:37:18;;;;;;;0.30;0.10;;;16.40;99.90;;;;;;5004029;28;20485;-78
2023/06/29 05:39:45;;;;;;;0.20;0.20;;;16.20;99.90;;;;;;4973047;28;20054;-78
2023/06/29 05:42:12;;;;;;;0.10;0.10;;;16.10;99.90;;;;;;4952233;28;20053;-78
2023/06/29 05:44:38;;;;;;;0.10;0.10;;;16.20;99.90;;;;;;4953129;28;20057;-78
2023/06/29 05:47:05;;;;;;;0.38;0.25;;;16.10;99.90;;;;;;4998833;28;20466;-78
2023/06/29 05:49:35;;;;;;;0.15;0.15;;;16.10;99.90;;;;;;4990823;28;20152;-78
2023/06/29 05:52:02;;;;;;;0.10;0.10;;;16.10;99.90;;;;;;4987687;28;20702;-77
2023/06/29 05:54:29;;;;;;;0.10;0.10;;;16.10;99.90;;;;;;5004883;28;20046;-77
2023/06/29 05:56:56;;;;;;;0.10;0.10;;;16.20;99.90;;;;;;5004637;28;20109;-78
2023/06/29 05:59:23;;;;;;;0.10;0.10;;;16.20;99.90;;;;;;5004509;28;20104;-77
2023/06/29 06:01:50;;;;;;;0.10;0.10;;;16.20;99.90;;;;;;4968023;28;20089;-78
2023/06/29 06:04:17;;;;;;;0.20;0.20;;;16.20;99.90;;;;;;4975780;28;20061;-77
2023/06/29 06:06:46;;;;;;;0.17;0.17;;;16.30;99.90;;;;;;5000597;28;20052;-77
2023/06/29 06:09:12;;;;;;;0.30;0.20;;;16.30;99.90;;;;;;4991620;28;20108;-77
2023/06/29 06:11:39;;;;;;;0.57;0.30;;;16.30;99.90;;;;;;4983787;28;20046;-77
2023/06/29 06:14:06;;;;;;;0.47;0.15;;;16.30;99.90;;;;;;5001190;28;20058;-76
2023/06/29 06:16:32;;;;;;;0.10;0.10;;;16.30;99.90;;;;;;5000856;28;20137;-78
2023/06/29 06:19:00;;;;;;;0.20;0.20;;;16.40;99.90;;;;;;4992292;28;20052;-77
2023/06/29 06:21:26;;;;;;;0.15;0.15;;;16.40;99.90;;;;;;5002960;28;20147;-77
2023/06/29 06:23:53;;;;;;;0.80;0.30;;;16.40;99.90;;;;;;4991154;28;20100;-77
2023/06/29 06:26:20;;;;;;;0.52;0.20;;;16.40;99.90;;;;;;4967137;28;20061;-77
2023/06/29 06:28:47;;;;;;;0.30;0.10;;;16.40;99.90;;;;;;4983699;28;20429;-77
2023/06/29 06:31:14;;;;;;;0.35;0.30;;;16.40;99.90;;;;;;5003291;28;20179;-78
2023/06/29 06:33:58;;;;;;;0.20;0.20;;;16.50;99.90;;;;;;5003930;28;20592;-77
2023/06/29 06:36:25;;;;;;;0.28;0.20;;;16.40;99.90;;;;;;5001175;28;20579;-77
2023/06/29 06:38:52;;;;;;;0.10;0.10;;;16.40;99.90;;;;;;4962270;28;20046;-77
2023/06/29 06:41:19;;;;;;;0.20;0.20;;;16.50;99.90;;;;;;5000009;28;20064;-76
2023/06/29 06:43:46;;;;;;;0.35;0.20;;;16.40;99.90;;;;;;4997913;28;20391;-78
2023/06/29 06:46:12;;;;;;;0.20;0.10;;;16.50;99.90;;;;;;4999574;28;20058;-78
2023/06/29 06:48:39;;;;;;;0.30;0.20;;;16.40;99.90;;;;;;4999063;28;20549;-80
2023/06/29 06:51:06;;;;;;;0.10;0.10;;;16.50;99.90;;;;;;4997635;28;20103;-77
2023/06/29 06:53:33;;;;;;;0.30;0.30;;;16.50;99.90;;;;;;4973967;28;20047;-77
2023/06/29 06:56:00;;;;;;;0.22;0.22;;;16.50;99.90;;;;;;5000604;28;20052;-77
2023/06/29 06:58:27;;;;;;;0.20;0.20;;;16.50;99.90;;;;;;4980898;28;20048;-77
2023/06/29 07:00:54;;;;;;;0.30;0.30;;;16.60;99.90;;;;;;4967325;28;20089;-77
2023/06/29 07:03:20;;;;;;;0.20;0.20;;;16.60;99.90;;;;;;4982483;28;20049;-78
2023/06/29 07:05:47;;;;;;;0.40;0.40;;;16.60;99.90;;;;;;4998504;28;20475;-77
2023/06/29 07:08:14;;;;;;;0.40;0.35;;;16.50;99.90;;;;;;4951326;28;20134;-79
2023/06/29 07:10:41;;;;;;;2.28;0.32;;;16.50;99.90;;;;;;4967557;28;20518;-77
2023/06/29 07:13:08;;;;;;;0.40;0.40;;;16.60;99.90;;;;;;4989962;28;20053;-77
2023/06/29 07:15:35;;;;;;;0.88;0.57;;;16.50;99.90;;;;;;5002799;28;20104;-78
2023/06/29 07:18:02;;;;;;;0.93;0.70;;;16.40;99.90;;;;;;4968908;28;20041;-80
2023/06/29 07:20:29;;;;;;;0.98;0.55;;;16.40;99.90;;;;;;4984082;28;20056;-77
2023/06/29 07:22:59;;;;;;;0.93;0.82;;;16.40;99.90;;;;;;4985646;28;20128;-78
2023/06/29 07:25:28;;;;;;;0.88;0.80;;;16.40;99.90;;;;;;5002142;28;20050;-77
2023/06/29 07:27:55;;;;;;;1.20;0.80;;;16.40;99.90;;;;;;4999936;28;20073;-78
2023/06/29 07:30:22;;;;;;;0.70;0.60;;;16.30;99.90;;;;;;4984833;28;20577;-78
2023/06/29 07:32:49;;;;;;;1.15;0.90;;;16.40;99.90;;;;;;4986512;28;20472;-78
2023/06/29 07:35:16;;;;;;;1.08;0.75;;;16.40;99.90;;;;;;4979964;28;20049;-78
2023/06/29 07:37:43;;;;;;;0.75;0.60;;;16.40;99.90;;;;;;5002145;28;20046;-78
2023/06/29 07:40:10;;;;;;;1.00;0.65;;;16.40;99.90;;;;;;5004339;28;20049;-79
2023/06/29 07:42:37;;;;;;;1.20;0.90;;;16.40;99.90;;;;;;5000624;28;20572;-79
2023/06/29 07:45:06;;;;;;;0.85;0.77;;;16.40;99.90;;;;;;5001799;28;20045;-79
2023/06/29 07:47:33;;;;;;;0.45;0.45;;;16.50;99.90;;;;;;4983655;28;20056;-78
2023/06/29 07:50:00;;;;;;;0.57;0.50;;;16.60;99.90;;;;;;4984512;28;20405;-79
2023/06/29 07:52:28;;;;;;;1.17;0.95;;;16.70;99.90;;;;;;5000608;28;20490;-78
2023/06/29 07:54:54;;;;;;;1.67;0.80;;;16.60;99.90;;;;;;4982554;28;20050;-78
2023/06/29 07:57:21;;;;;;;0.80;0.57;;;16.60;99.90;;;;;;4988311;28;20050;-79
2023/06/29 07:59:51;;;;;;;1.02;0.75;;;16.60;99.90;;;;;;5006833;28;20119;-79
2023/06/29 08:02:17;;;;;;;0.90;0.80;;;16.60;99.90;;;;;;5005312;28;20673;-79
2023/06/29 08:04:44;;;;;;;1.23;0.80;;;16.70;99.90;;;;;;5003415;28;20089;-79
2023/06/29 08:07:14;;;;;;;0.60;0.60;;;16.80;99.90;;;;;;5007919;28;20064;-79
2023/06/29 08:09:41;;;;;;;0.60;0.60;;;16.90;99.90;;;;;;5001418;28;20056;-78
2023/06/29 08:12:08;;;;;;;0.60;0.40;;;16.90;99.90;;;;;;4989611;28;20089;-79
2023/06/29 08:14:35;;;;;;;0.43;0.40;;;16.90;99.90;;;;;;4993817;28;20410;-79
2023/06/29 08:17:03;;;;;;;0.60;0.60;;;16.90;99.90;;;;;;4963963;28;20974;-79
2023/06/29 08:19:30;;;;;;;0.65;0.65;;;16.90;99.90;;;;;;4960163;28;20108;-78
2023/06/29 08:21:57;;;;;;;0.50;0.50;;;16.90;99.90;;;;;;5000084;28;20619;-79
2023/06/29 08:24:23;;;;;;;0.85;0.70;;;16.90;99.90;;;;;;4988182;28;20115;-78
2023/06/29 08:26:50;;;;;;;0.70;0.70;;;16.80;99.90;;;;;;5010988;28;20053;-77
2023/06/29 08:29:17;;;;;;;1.02;0.80;;;16.70;99.90;;;;;;4994827;28;20927;-78
2023/06/29 08:31:44;;;;;;;1.08;0.52;;;16.70;99.90;;;;;;4980799;28;20057;-78
2023/06/29 08:34:11;;;;;;;0.80;0.80;;;16.70;99.90;;;;;;5008665;28;20086;-77
2023/06/29 08:36:37;;;;;;;0.90;0.82;;;16.70;99.90;;;;;;5005495;28;20524;-78
2023/06/29 08:39:04;;;;;;;1.23;1.13;;;16.90;99.90;;;;;;4993933;28;20535;-78
2023/06/29 08:41:31;;;;;;;1.00;0.90;;;17.00;99.90;;;;;;5006054;28;20080;-77
2023/06/29 08:43:58;;;;;;;1.08;0.80;;;17.10;99.90;;;;;;4986953;28;20054;-77
2023/06/29 08:46:24;;;;;;;1.08;0.80;;;17.10;99.90;;;;;;5000240;28;20054;-79
2023/06/29 08:48:51;;;;;;;0.98;0.88;;;17.10;99.90;;;;;;4972412;28;20053;-79
2023/06/29 08:51:19;;;;;;;0.70;0.70;;;17.20;99.90;;;;;;4986322;28;20050;-78
2023/06/29 08:53:46;;;;;;;1.38;0.80;;;17.20;99.90;;;;;;4979460;28;20062;-79
2023/06/29 08:56:12;;;;;;;1.30;0.95;;;17.10;99.90;;;;;;4987706;28;20045;-79
2023/06/29 08:58:39;;;;;;;1.23;1.00;;;17.10;99.90;;;;;;4994165;28;20053;-78
2023/06/29 09:01:06;;;;;;;1.40;0.95;;;17.10;99.90;;;;;;4987721;28;20046;-78
2023/06/29 09:03:35;;;;;;;1.35;1.10;;;17.20;99.90;;;;;;4991601;28;20061;-78
2023/06/29 09:06:03;;;;;;;0.95;0.80;;;17.30;99.90;;;;;;4988082;28;20045;-79
2023/06/29 09:08:30;;;;;;;0.75;0.75;;;17.50;99.90;;;;;;4984723;28;20054;-78
2023/06/29 09:10:57;;;;;;;0.85;0.80;;;17.50;99.90;;;;;;4987946;28;20051;-78
2023/06/29 09:13:27;;;;;;;0.75;0.75;;;17.60;99.90;;;;;;4970590;28;20140;-77
2023/06/29 09:15:54;;;;;;;1.00;0.70;;;17.70;99.90;;;;;;4989851;28;20077;-80
2023/06/29 09:18:24;;;;;;;1.70;1.20;;;17.80;99.90;;;;;;4976318;28;20568;-80
2023/06/29 09:20:57;;;;;;;;;;;17.90;99.90;;;;;;4988444;28;20049;-81
2023/06/29 09:23:27;;;;;;;1.50;1.05;;;17.90;99.90;;;;;;4987349;28;19956;-79
2023/06/29 09:25:55;;;;;;;1.20;1.10;;;17.90;99.90;;;;;;4967457;28;20049;-80
2023/06/29 09:28:22;;;;;;;0.77;0.77;;;17.90;99.90;;;;;;4970136;28;20060;-79
2023/06/29 09:30:49;;;;;;;1.27;1.10;;;17.80;99.90;;;;;;4953809;28;20077;-79
2023/06/29 09:33:16;;;;;;;1.05;0.90;;;17.70;99.90;;;;;;5002857;28;20539;-79
2023/06/29 09:35:47;;;;;;;1.13;0.90;;;17.70;99.90;;;;;;5001884;28;20073;-80
2023/06/29 09:38:15;;;;;;;1.05;0.90;;;17.70;99.90;;;;;;5003180;28;20053;-78
2023/06/29 09:40:47;;;;;;;1.38;0.90;;;17.70;99.90;;;;;;5005418;28;20050;-79
2023/06/29 09:43:21;;;;;;;1.05;0.70;;;17.60;99.90;;;;;;5004040;28;20100;-79
2023/06/29 09:45:48;;;;;;;0.95;0.85;;;17.60;99.90;;;;;;4970066;28;20081;-81
2023/06/29 09:48:15;;;;;;;0.70;0.60;;;17.50;99.90;;;;;;4971950;28;20498;-78
2023/06/29 09:50:49;;;;;;;1.15;0.70;;;17.50;99.90;;;;;;4978829;28;20073;-80
2023/06/29 09:53:17;;;;;;;0.73;0.63;;;17.50;99.90;;;;;;4996916;28;20173;-78
2023/06/29 09:55:44;;;;;;;1.08;0.98;;;17.50;99.90;;;;;;4969435;28;20115;-77
2023/06/29 09:58:11;;;;;;;1.00;0.90;;;17.80;99.90;;;;;;4968567;28;20081;-80
2023/06/29 10:00:39;;;;;;;0.88;0.73;;;17.90;99.90;;;;;;4970382;28;20046;-80
2023/06/29 10:03:07;;;;;;;0.88;0.80;;;18.00;99.90;;;;;;4974723;28;20144;-80
2023/06/29 10:05:34;;;;;;;1.35;1.10;;;18.20;99.90;;;;;;4965800;28;20049;-80
2023/06/29 10:08:01;;;;;;;0.70;0.65;;;18.40;99.90;;;;;;5004644;28;20046;-81
2023/06/29 10:10:28;;;;;;;0.77;0.60;;;18.70;99.90;;;;;;4983904;28;20046;-80
2023/06/29 10:12:55;;;;;;;0.60;0.60;;;19.00;99.90;;;;;;4984941;28;20045;-80
2023/06/29 10:15:23;;;;;;;2.28;0.68;;;18.90;99.90;;;;;;4987935;28;20112;-79
2023/06/29 10:18:01;;;;;;;1.27;0.70;;;18.80;99.90;;;;;;4972153;28;20080;-80
2023/06/29 10:20:30;;;;;;;0.75;0.60;;;18.70;99.90;;;;;;4987226;28;20073;-80
2023/06/29 10:22:59;;;;;;;0.47;0.47;;;18.70;99.90;;;;;;5004341;28;20492;-80
2023/06/29 10:25:25;;;;;;;0.90;0.70;;;18.70;99.90;;;;;;4983805;28;20058;-79
2023/06/29 10:27:54;;;;;;;0.50;0.43;;;18.60;99.90;;;;;;5001836;28;20068;-80
2023/06/29 10:30:21;;;;;;;0.85;0.57;;;18.70;99.90;;;;;;4972293;28;20052;-79
2023/06/29 10:32:53;;;;;;;0.50;0.45;;;18.70;99.90;;;;;;4971107;28;20124;-80
2023/06/29 10:35:22;;;;;;;0.63;0.40;;;19.00;99.90;;;;;;4986194;28;20125;-80
2023/06/29 10:37:56;;;;;;;0.57;0.50;;;19.50;99.90;;;;;;4984835;28;20068;-79
2023/06/29 10:40:26;;;;;;;1.08;0.60;;;19.70;99.90;;;;;;4968268;28;20061;-80
2023/06/29 10:42:53;;;;;;;0.82;0.70;;;19.60;99.90;;;;;;4970954;28;20073;-79
2023/06/29 10:45:21;;;;;;;0.75;0.68;;;19.50;99.90;;;;;;4970591;28;20148;-80
2023/06/29 10:47:57;;;;;;;0.50;0.50;;;19.50;99.90;;;;;;5004915;28;20056;-80
2023/06/29 10:50:38;;;;;;;0.93;0.70;;;19.70;99.90;;;;;;5003707;28;20046;-79
2023/06/29 10:53:07;;;;;;;1.05;0.70;;;19.90;99.90;;;;;;4972039;28;20129;-79
2023/06/29 10:55:45;;;;;;;0.80;0.70;;;19.80;99.90;;;;;;5004262;28;20081;-79
2023/06/29 10:58:17;;;;;;;0.75;0.70;;;19.80;99.90;;;;;;5004360;28;20144;-80
2023/06/29 11:00:44;;;;;;;0.60;0.52;;;19.60;99.90;;;;;;4972237;28;20667;-79
2023/06/29 11:03:12;;;;;;;0.50;0.50;;;19.70;99.90;;;;;;4987771;28;20053;-80
2023/06/29 11:05:39;;;;;;;0.73;0.68;;;19.80;99.90;;;;;;4969686;28;20058;-80
2023/06/29 11:08:07;;;;;;;1.10;1.00;;;19.90;99.90;;;;;;4970220;28;20201;-81
2023/06/29 11:10:34;;;;;;;1.67;0.90;;;19.90;99.90;;;;;;4985769;28;20042;-80
2023/06/29 11:13:00;;;;;;;1.45;0.88;;;19.90;99.90;;;;;;5003726;28;20081;-79
2023/06/29 11:15:27;;;;;;;2.38;1.10;;;20.10;99.90;;;;;;4965108;28;20472;-77
2023/06/29 11:17:54;;;;;;;0.77;0.77;;;20.00;99.90;;;;;;4982200;28;20137;-78
2023/06/29 11:20:27;;;;;;;1.25;1.15;;;20.10;99.90;;;;;;4985759;28;20096;-79
2023/06/29 11:22:53;;;;;;;1.10;0.90;;;20.30;99.90;;;;;;5003528;28;20094;-78
2023/06/29 11:25:20;;;;;;;2.03;1.08;;;20.50;99.90;;;;;;4999626;28;20081;-79
2023/06/29 11:27:47;;;;;;;1.45;0.95;;;20.80;99.90;;;;;;4983164;28;20045;-80
2023/06/29 11:30:14;;;;;;;0.80;0.70;;;21.00;99.90;;;;;;4984986;28;20116;-79
2023/06/29 11:32:41;;;;;;;0.70;0.70;;;21.00;99.90;;;;;;4990978;28;20050;-79
2023/06/29 11:35:12;;;;;;;0.50;0.50;;;21.10;99.90;;;;;;4979615;28;20525;-79
2023/06/29 11:37:39;;;;;;;1.25;0.90;;;21.30;99.90;;;;;;4977706;28;20301;-80
2023/06/29 11:40:16;;;;;;;0.80;0.70;;;21.30;99.90;;;;;;4989808;28;20050;-78
2023/06/29 11:42:44;;;;;;;0.82;0.82;;;21.30;99.90;;;;;;4986274;28;20441;-78
2023/06/29 11:45:12;;;;;;;1.00;0.70;;;21.50;99.90;;;;;;4970205;28;20165;-78
2023/06/29 11:47:39;;;;;;;1.02;0.80;;;21.90;99.90;;;;;;4973415;28;20046;-78
2023/06/29 11:50:09;;;;;;;0.68;0.60;;;22.20;99.90;;;;;;4987396;28;20053;-80
2023/06/29 11:52:38;;;;;;;0.95;0.70;;;22.50;99.90;;;;;;4977448;28;20046;-80
2023/06/29 11:55:06;;;;;;;0.50;0.50;;;22.70;99.90;;;;;;4992509;28;20108;-80
2023/06/29 11:57:38;;;;;;;1.30;0.90;;;23.00;99.90;;;;;;5001868;28;20592;-77
2023/06/29 12:00:08;;;;;;;0.68;0.52;;;23.10;99.90;;;;;;4992739;28;20057;-77
2023/06/29 12:02:36;;;;;;;0.60;0.60;;;23.40;99.90;;;;;;4985684;28;20409;-79
2023/06/29 12:05:04;;;;;;;0.68;0.60;;;23.80;99.90;;;;;;5005617;28;20064;-78
2023/06/29 12:07:36;;;;;;;0.80;0.80;;;24.10;99.90;;;;;;5008955;28;20065;-79
2023/06/29 12:10:07;;;;;;;0.60;0.60;;;24.00;99.90;;;;;;4976306;28;20177;-80
2023/06/29 12:12:35;;;;;;;0.70;0.70;;;24.00;99.90;;;;;;4976650;28;20046;-79
2023/06/29 12:15:17;;;;;;;0.75;0.50;;;23.90;99.90;;;;;;4969746;28;20636;-79
2023/06/29 12:17:44;;;;;;;0.85;0.45;;;24.30;99.90;;;;;;4972469;28;20116;-79
2023/06/29 12:20:15;;;;;;;0.68;0.52;;;24.40;99.90;;;;;;4953373;28;20139;-77
2023/06/29 12:22:43;;;;;;;1.00;0.68;;;24.40;99.90;;;;;;4974057;28;20442;-80
2023/06/29 12:25:12;;;;;;;0.85;0.68;;;24.60;99.90;;;;;;5005074;28;20577;-78
2023/06/29 12:27:43;;;;;;;0.90;0.70;;;25.00;99.90;;;;;;4982905;28;20054;-78
2023/06/29 12:30:14;;;;;;;0.65;0.50;;;25.10;99.90;;;;;;4981300;28;20110;-79
2023/06/29 12:32:42;;;;;;;1.30;0.75;;;25.10;99.90;;;;;;4997234;28;20054;-79
2023/06/29 12:35:09;;;;;;;0.57;0.50;;;25.30;99.90;;;;;;4987116;28;20065;-79
2023/06/29 12:37:38;;;;;;;0.60;0.50;;;25.20;99.90;;;;;;4958326;28;20081;-79
2023/06/29 12:40:05;;;;;;;0.55;0.50;;;24.60;99.90;;;;;;4946382;28;20155;-80
2023/06/29 12:42:32;;;;;;;0.30;0.30;;;24.20;99.90;;;;;;4982670;28;20057;-78
2023/06/29 12:45:00;;;;;;;1.15;0.30;;;24.00;99.90;;;;;;4988861;28;20057;-79
2023/06/29 12:47:28;;;;;;;0.90;0.35;;;23.80;99.90;;;;;;4965442;28;20060;-79
2023/06/29 12:49:55;;;;;;;0.80;0.70;;;24.20;99.90;;;;;;4972606;28;20048;-79